WetterOnline ( http://www.wetteronline.de )

Wetter aktuell Luckenwalde

Aktuelles Wetter: Baruth (55m)

6-stündlich | Neueste Meldungen
Ortszeit Temperatur Wetter
Sa, 20.10. 14:00 12.4° C wolkig
Sa, 20.10. 8:00 -1.5° C leicht bewölkt
Sa, 20.10. 2:00 -0.6° C wolkig
Fr, 19.10. 20:00 5.7° C wolkenlos
Fr, 19.10. 14:00 14.0° C leicht bewölkt
Fr, 19.10. 8:00 9.9° C bedeckt
Fr, 19.10. 2:00 12.3° C bedeckt
Do, 18.10. 20:00 13.1° C bedeckt
Ortszeit Temperatur Wetter
Sa, 20.10. 14:00 12.4° C wolkig
Sa, 20.10. 13:50 12.4° C wolkig
Sa, 20.10. 13:40 13.0° C wolkig
Sa, 20.10. 13:30 12.4° C wolkig
Sa, 20.10. 13:20 12.4° C wolkig
Sa, 20.10. 13:10 12.4° C leicht bewölkt
Sa, 20.10. 13:00 12.5° C fast wolkenlos
Sa, 20.10. 12:30 11.8° C wolkenlos
Sa, 20.10. 12:00 10.8° C fast wolkenlos
Sa, 20.10. 11:30 8.9° C bedeckt
Sa, 20.10. 11:00 6.7° C bedeckt
Ortszeit Relative Feuchte Sichtweite
Sa, 20.10. 14:00 51% 30 km
Sa, 20.10. 8:00 94% 13 km
Sa, 20.10. 2:00 94% 23 km
Fr, 19.10. 20:00 88% 40 km
Fr, 19.10. 14:00 49% 40 km
Fr, 19.10. 8:00 80% 40 km
Fr, 19.10. 2:00 80% 35 km
Do, 18.10. 20:00 91% 2.9 km
Ortszeit Relative Feuchte Sichtweite
Sa, 20.10. 14:00 51% 30 km
Sa, 20.10. 13:50 51% -
Sa, 20.10. 13:40 50% -
Sa, 20.10. 13:30 52% 30 km
Sa, 20.10. 13:20 52% -
Sa, 20.10. 13:10 50% -
Sa, 20.10. 13:00 53% 28 km
Sa, 20.10. 12:30 57% 35 km
Sa, 20.10. 12:00 63% 30 km
Sa, 20.10. 11:30 74% 21 km
Sa, 20.10. 11:00 83% 23 km
Ortszeit Niederschlagsmenge Niederschlagsart
Sa, 20.10. 14:00 0.0 l/m2 in 6 Std. -
Sa, 20.10. 8:00 0.0 l/m2 in 12 Std. -
Sa, 20.10. 2:00 0.0 l/m2 in 6 Std. -
Fr, 19.10. 20:00 0.0 l/m2 in 12 Std. -
Fr, 19.10. 14:00 0.0 l/m2 in 6 Std. -
Fr, 19.10. 8:00 0.1 l/m2 in 12 Std. -
Fr, 19.10. 2:00 0.1 l/m2 in 6 Std. Regen
Do, 18.10. 20:00 0.0 l/m2 in 12 Std. -
Ortszeit Niederschlagsmenge Niederschlagsart
Sa, 20.10. 14:00 0.0 l/m2 in 1 Std. -
Sa, 20.10. 13:50 keine Meldung -
Sa, 20.10. 13:40 keine Meldung -
Sa, 20.10. 13:30 0.0 l/m2 in 1 Std. -
Sa, 20.10. 13:20 keine Meldung -
Sa, 20.10. 13:10 keine Meldung -
Sa, 20.10. 13:00 0.0 l/m2 in 1 Std. -
Sa, 20.10. 12:30 0.0 l/m2 in 1 Std. -
Sa, 20.10. 12:00 0.0 l/m2 in 1 Std. -
Sa, 20.10. 11:30 0.0 l/m2 in 1 Std. -
Sa, 20.10. 11:00 0.0 l/m2 in 1 Std. -
Ortszeit Stärke Spitze Richtung
km/h Bft. km/h Grad Sektor
Sa, 20.10. 14:00 9 2 30 310° NW
Sa, 20.10. 8:00 6 1 13 300° NW
Sa, 20.10. 2:00 4 1 7 310° NW
Fr, 19.10. 20:00 6 1 17 270° W
Fr, 19.10. 14:00 6 1 17 330° NW
Fr, 19.10. 8:00 4 1 14 300° NW
Fr, 19.10. 2:00 4 1 22 330° NW
Do, 18.10. 20:00 9 2 26 270° W
Ortszeit Stärke Spitze Richtung
km/h Bft. km/h Grad Sektor
Sa, 20.10. 14:00 9 2 30 310° NW
Sa, 20.10. 13:50 9 2 - 310° NW
Sa, 20.10. 13:40 14 3 - 270° W
Sa, 20.10. 13:30 14 3 29 280° W
Sa, 20.10. 13:20 14 3 - 280° W
Sa, 20.10. 13:10 13 3 - 290° W
Sa, 20.10. 13:00 15 3 24 270° W
Sa, 20.10. 12:30 15 3 22 280° W
Sa, 20.10. 12:00 9 2 19 280° W
Sa, 20.10. 11:30 7 2 14 270° W
Sa, 20.10. 11:00 6 1 15 270° W
Ortszeit Untergrenze Bedeckung Gattung
total tief tief mittel hoch
Sa, 20.10. 14:00 1110 m 8/8 1/8 - - -
Sa, 20.10. 8:00 1350 m 3/8 3/8 - - -
Sa, 20.10. 2:00 7200 m 7/8 0/8 - - -
Fr, 19.10. 20:00 - 0/8 0/8 - - -
Fr, 19.10. 14:00 8700 m 5/8 0/8 - - -
Fr, 19.10. 8:00 1380 m 8/8 8/8 - - -
Fr, 19.10. 2:00 510 m 8/8 8/8 - - -
Do, 18.10. 20:00 120 m 8/8 8/8 - - -
Ortszeit Bedeckungsgrad in Achtel und Wolkenuntergrenze
Sa, 20.10. 14:00 1(1110m) 8(8400m)
Sa, 20.10. 13:50 1(1110m) 8(8400m)
Sa, 20.10. 13:40 1(1110m) 2(2400m) 8(8400m)
Sa, 20.10. 13:30 1(1050m) 3(2400m) 6(8400m)
Sa, 20.10. 13:20 1(1050m) 3(2400m) 6(8400m)
Sa, 20.10. 13:10 1(1050m) 2(2400m) 4(8400m)
Sa, 20.10. 13:00 2(8700m) 2(8700m)
Sa, 20.10. 12:30 keine Wolken
Sa, 20.10. 12:00 1(1380m)
Sa, 20.10. 11:30 8(1320m)
Sa, 20.10. 11:00 8(1290m)
Ortszeit Luftdruck NN (hPa) Tendenz (hPa in 3 Std.)
Sa, 20.10. 14:00 1029 - 0,4
Sa, 20.10. 8:00 1028 + 0,8
Sa, 20.10. 2:00 1027 + 0,1
Fr, 19.10. 20:00 1026 + 0,8
Fr, 19.10. 14:00 1025 - 0,6
Fr, 19.10. 8:00 1025 + 0,7
Fr, 19.10. 2:00 1024 + 0,5
Do, 18.10. 20:00 1022 + 1,0
Ortszeit Luftdruck NN (hPa) Tendenz (hPa in 3 Std.)
Sa, 20.10. 14:00 1029 - 0,4
Sa, 20.10. 13:50 1029 keine Meldung
Sa, 20.10. 13:40 1029 keine Meldung
Sa, 20.10. 13:30 1029 - 0,2
Sa, 20.10. 13:20 1029 keine Meldung
Sa, 20.10. 13:10 1029 keine Meldung
Sa, 20.10. 13:00 1029 - 0,2
Sa, 20.10. 12:30 1029 + 0,5
Sa, 20.10. 12:00 1029 + 0,8
Sa, 20.10. 11:30 1029 + 0,9
Sa, 20.10. 11:00 1029 + 1,3
Ortszeit Schneehöhe (cm)
Sa, 20.10. 14:00 0
Sa, 20.10. 8:00 0
Sa, 20.10. 2:00 0
Fr, 19.10. 20:00 0
Fr, 19.10. 14:00 0
Fr, 19.10. 8:00 0
Fr, 19.10. 2:00 0
Do, 18.10. 20:00 0
Ortszeit Schneehöhe (cm)
Sa, 20.10. 14:00 0
Sa, 20.10. 13:50 0
Sa, 20.10. 13:40 0
Sa, 20.10. 13:30 0
Sa, 20.10. 13:20 0
Sa, 20.10. 13:10 0
Sa, 20.10. 13:00 0
Sa, 20.10. 12:30 0
Sa, 20.10. 12:00 0
Sa, 20.10. 11:30 0
Sa, 20.10. 11:00 0
Link zu dieser Seite / Seite empfehlen

Das Wetter in ...